Time;durP1;ratioP1;P1;durP2;ratioP2;P2;SDS_P1;SDS_P2;PMS_P1;PMS_P2;Temp;Humidity;BMP_temperature;BMP_pressure;BME280_temperature;BME280_humidity;BME280_pressure;Samples;Min_cycle;Max_cycle;Signal;HPM_P1;HPM_P2
2022/11/10 00:00:21;;;;;;;0.98;0.93;;;10.00;99.90;;;;;;5092868;28;20308;-77
2022/11/10 00:02:48;;;;;;;3.42;0.88;;;10.00;99.90;;;;;;5092889;28;20197;-77
2022/11/10 00:05:15;;;;;;;0.98;0.98;;;10.00;99.90;;;;;;5092557;28;20292;-79
2022/11/10 00:07:44;;;;;;;0.98;0.70;;;10.00;99.90;;;;;;5092810;28;20202;-78
2022/11/10 00:10:10;;;;;;;0.50;0.40;;;10.00;99.90;;;;;;5092770;28;20213;-77
2022/11/10 00:12:38;;;;;;;1.13;0.68;;;10.00;99.90;;;;;;5093165;28;20280;-78
2022/11/10 00:17:50;;;;;;;0.60;0.50;;;9.90;99.90;;;;;;5092942;28;20172;-77
2022/11/10 00:20:17;;;;;;;0.82;0.82;;;9.90;99.90;;;;;;5092527;28;20185;-77
2022/11/10 00:22:45;;;;;;;1.00;1.00;;;9.90;99.90;;;;;;5092567;28;20204;-79
2022/11/10 00:25:12;;;;;;;1.50;1.40;;;10.00;99.90;;;;;;5092122;28;20701;-78
2022/11/10 00:27:39;;;;;;;0.50;0.40;;;9.90;99.90;;;;;;5092685;28;20200;-77
2022/11/10 00:30:07;;;;;;;0.50;0.40;;;9.90;99.90;;;;;;5092130;28;20217;-77
2022/11/10 00:32:33;;;;;;;0.95;0.85;;;9.90;99.90;;;;;;5092791;28;20204;-77
2022/11/10 00:35:00;;;;;;;0.50;0.40;;;9.90;99.90;;;;;;5091815;28;20197;-79
2022/11/10 00:37:27;;;;;;;0.60;0.60;;;9.90;99.90;;;;;;5092408;28;20570;-77
2022/11/10 00:39:55;;;;;;;4.43;2.05;;;9.90;99.90;;;;;;5092190;28;20185;-77
2022/11/10 00:42:22;;;;;;;0.50;0.50;;;9.90;99.90;;;;;;5092007;28;20579;-77
2022/11/10 00:44:49;;;;;;;1.20;1.08;;;9.90;99.90;;;;;;5092071;28;20198;-77
2022/11/10 00:47:16;;;;;;;0.50;0.50;;;9.90;99.90;;;;;;5092381;28;20203;-78
2022/11/10 00:49:43;;;;;;;0.50;0.43;;;9.90;99.90;;;;;;5092512;28;20216;-78
2022/11/10 00:52:09;;;;;;;2.97;0.93;;;9.90;99.90;;;;;;5091840;28;20224;-78
2022/11/10 00:54:36;;;;;;;0.50;0.40;;;9.90;99.90;;;;;;5091617;28;20195;-78
2022/11/10 00:57:04;;;;;;;2.00;1.90;;;9.80;99.90;;;;;;5092132;28;20205;-78
2022/11/10 00:59:31;;;;;;;0.50;0.30;;;9.80;99.90;;;;;;5091930;28;20201;-76
2022/11/10 01:01:58;;;;;;;1.27;1.13;;;9.80;99.90;;;;;;5091638;28;20595;-79
2022/11/10 01:04:25;;;;;;;0.50;0.40;;;9.80;99.90;;;;;;5091406;28;20196;-78
2022/11/10 01:06:52;;;;;;;0.52;0.52;;;9.80;99.90;;;;;;5091913;28;20189;-78
2022/11/10 01:09:19;;;;;;;0.50;0.50;;;9.80;99.90;;;;;;5091646;28;20694;-80
2022/11/10 01:11:45;;;;;;;0.93;0.88;;;9.80;99.90;;;;;;5092029;28;20720;-76
2022/11/10 01:14:14;;;;;;;0.50;0.40;;;9.80;99.90;;;;;;5091108;28;20342;-79
2022/11/10 01:16:40;;;;;;;1.13;1.13;;;9.70;99.90;;;;;;5092420;28;20200;-79
2022/11/10 01:19:07;;;;;;;0.70;0.70;;;9.80;99.90;;;;;;5092580;28;20196;-79
2022/11/10 01:21:34;;;;;;;4.40;3.15;;;9.70;99.90;;;;;;5092359;28;20220;-77
2022/11/10 01:24:01;;;;;;;11.35;2.13;;;9.80;99.90;;;;;;5092041;28;20193;-79
2022/11/10 01:26:28;;;;;;;0.50;0.40;;;9.70;99.90;;;;;;5092789;28;20190;-80
2022/11/10 01:28:55;;;;;;;1.08;0.57;;;9.70;99.90;;;;;;5091960;28;20215;-79
2022/11/10 01:31:23;;;;;;;0.50;0.40;;;9.70;99.90;;;;;;5092299;28;20215;-78
2022/11/10 01:33:49;;;;;;;0.98;0.60;;;9.70;99.90;;;;;;5092016;28;20203;-79
2022/11/10 01:36:16;;;;;;;1.35;1.25;;;9.70;99.90;;;;;;5092387;28;20204;-80
2022/11/10 01:38:43;;;;;;;1.13;0.50;;;9.70;99.90;;;;;;5092288;28;20193;-80
2022/11/10 01:41:13;;;;;;;0.50;0.40;;;9.70;99.90;;;;;;5091927;28;20227;-79
2022/11/10 01:43:40;;;;;;;1.40;1.25;;;9.70;99.90;;;;;;5092257;28;20320;-79
2022/11/10 01:46:09;;;;;;;3.38;0.50;;;9.70;99.90;;;;;;5091632;28;20280;-78
2022/11/10 01:48:40;;;;;;;0.50;0.40;;;9.70;99.90;;;;;;5092223;28;20303;-79
2022/11/10 01:51:11;;;;;;;1.38;1.27;;;9.70;99.90;;;;;;5092110;28;20205;-80
2022/11/10 01:53:42;;;;;;;5.80;1.52;;;9.70;99.90;;;;;;5091946;28;20665;-79
2022/11/10 01:56:12;;;;;;;1.40;1.30;;;9.70;99.90;;;;;;5091948;28;20568;-78
2022/11/10 01:58:43;;;;;;;0.50;0.40;;;9.60;99.90;;;;;;5092419;28;20219;-79
2022/11/10 02:01:10;;;;;;;0.50;0.40;;;9.70;99.90;;;;;;5091293;28;20209;-78
2022/11/10 02:03:45;;;;;;;3.45;0.82;;;9.70;99.90;;;;;;5091897;28;20204;-78
2022/11/10 02:06:13;;;;;;;3.20;1.25;;;9.70;99.90;;;;;;5091376;28;20199;-77
2022/11/10 02:08:43;;;;;;;1.88;1.77;;;9.80;99.90;;;;;;5091911;28;20201;-79
2022/11/10 02:11:11;;;;;;;0.70;0.70;;;9.80;99.90;;;;;;5092054;28;20210;-79
2022/11/10 02:13:38;;;;;;;1.95;1.65;;;9.80;99.90;;;;;;5091596;28;20280;-78
2022/11/10 02:16:05;;;;;;;0.50;0.40;;;9.80;99.90;;;;;;5091111;28;20566;-78
2022/11/10 02:18:32;;;;;;;0.75;0.75;;;9.80;99.90;;;;;;5092355;28;20193;-78
2022/11/10 02:21:03;;;;;;;0.50;0.50;;;9.80;99.90;;;;;;5091034;28;20209;-79
2022/11/10 02:23:45;;;;;;;1.35;1.10;;;9.80;99.90;;;;;;5091662;28;20182;-79
2022/11/10 02:26:14;;;;;;;0.55;0.52;;;9.80;99.90;;;;;;5095200;28;20204;-79
2022/11/10 02:28:40;;;;;;;1.42;1.33;;;9.70;99.90;;;;;;5095052;28;20197;-78
2022/11/10 02:31:08;;;;;;;0.73;0.73;;;9.70;99.90;;;;;;5095219;28;20216;-79
2022/11/10 02:33:35;;;;;;;2.25;2.15;;;9.70;99.90;;;;;;5095316;28;20193;-79
2022/11/10 02:36:04;;;;;;;0.50;0.40;;;9.70;99.90;;;;;;5094859;28;20573;-79
2022/11/10 02:38:31;;;;;;;1.77;1.67;;;9.70;99.90;;;;;;5095425;28;20193;-80
2022/11/10 02:40:57;;;;;;;0.50;0.50;;;9.60;99.90;;;;;;5095137;28;20241;-79
2022/11/10 02:43:24;;;;;;;0.93;0.50;;;9.60;99.90;;;;;;5094711;28;20193;-79
2022/11/10 02:45:51;;;;;;;1.23;1.05;;;9.60;99.90;;;;;;5094966;28;20605;-79
2022/11/10 02:48:19;;;;;;;3.85;2.00;;;9.60;99.90;;;;;;5094851;28;20190;-79
2022/11/10 02:50:45;;;;;;;1.08;0.93;;;9.50;99.90;;;;;;5094877;28;20235;-79
2022/11/10 02:53:13;;;;;;;0.50;0.40;;;9.50;99.90;;;;;;5095046;28;20190;-79
2022/11/10 02:55:40;;;;;;;2.00;1.02;;;9.50;99.90;;;;;;5094561;28;20219;-79
2022/11/10 02:58:07;;;;;;;0.50;0.40;;;9.50;99.90;;;;;;5094720;28;20193;-78
2022/11/10 03:00:34;;;;;;;4.18;3.78;;;9.50;99.90;;;;;;5094502;28;20225;-79
2022/11/10 03:03:02;;;;;;;10.75;2.45;;;9.50;99.90;;;;;;5094257;28;20193;-77
2022/11/10 03:05:29;;;;;;;0.50;0.50;;;9.50;99.90;;;;;;5094127;28;20193;-79
2022/11/10 03:07:57;;;;;;;2.10;1.33;;;9.50;99.90;;;;;;5094218;28;20283;-78
2022/11/10 03:10:26;;;;;;;0.70;0.60;;;9.50;99.90;;;;;;5094564;28;20227;-79
2022/11/10 03:12:54;;;;;;;0.50;0.40;;;9.50;99.90;;;;;;5094325;28;20670;-78
2022/11/10 03:15:22;;;;;;;4.90;1.13;;;9.50;99.90;;;;;;5094310;28;20208;-79
2022/11/10 03:17:49;;;;;;;31.80;3.00;;;9.50;99.90;;;;;;5094347;28;20189;-79
2022/11/10 03:20:16;;;;;;;1.02;0.93;;;9.50;99.90;;;;;;5094247;28;20194;-79
2022/11/10 03:22:43;;;;;;;4.93;2.88;;;9.60;99.90;;;;;;5094269;28;20193;-79
2022/11/10 03:25:10;;;;;;;5.90;1.35;;;9.50;99.90;;;;;;5094130;28;20229;-74
2022/11/10 03:27:38;;;;;;;2.47;2.28;;;9.50;99.90;;;;;;5093857;28;20199;-79
2022/11/10 03:30:07;;;;;;;0.70;0.63;;;9.60;99.90;;;;;;5094233;28;20209;-79
2022/11/10 03:32:34;;;;;;;3.25;0.82;;;9.50;99.90;;;;;;5093997;28;20247;-79
2022/11/10 03:35:02;;;;;;;0.60;0.50;;;9.50;99.90;;;;;;5085224;22;20234;-78
2022/11/10 03:37:29;;;;;;;4.10;1.83;;;9.50;99.90;;;;;;5077398;28;20201;-80
2022/11/10 03:39:55;;;;;;;0.60;0.60;;;9.50;99.90;;;;;;5085923;28;20190;-75
2022/11/10 03:42:22;;;;;;;0.50;0.40;;;9.50;99.90;;;;;;5085704;28;20204;-78
2022/11/10 03:44:50;;;;;;;1.30;1.20;;;9.50;99.90;;;;;;5067659;28;20242;-79
2022/11/10 03:47:17;;;;;;;3.33;0.50;;;9.50;99.90;;;;;;5066213;28;20258;-78
2022/11/10 03:49:44;;;;;;;1.58;1.48;;;9.50;99.90;;;;;;5065112;28;20270;-80
2022/11/10 03:52:11;;;;;;;0.70;0.70;;;9.50;99.90;;;;;;5066048;28;20263;-76
2022/11/10 03:54:37;;;;;;;2.55;1.08;;;9.50;99.90;;;;;;5065993;28;20306;-80
2022/11/10 03:57:04;;;;;;;1.15;0.52;;;9.50;99.90;;;;;;5065689;28;20198;-78
2022/11/10 03:59:31;;;;;;;0.75;0.50;;;9.50;99.90;;;;;;5066477;28;20205;-80
2022/11/10 04:02:00;;;;;;;0.50;0.50;;;9.40;99.90;;;;;;5065688;28;20270;-79
2022/11/10 04:09:57;;;;;;;0.50;0.40;;;9.40;99.90;;;;;;5065685;28;20253;-80
2022/11/10 04:18:19;;;;;;;0.60;0.60;;;9.40;99.90;;;;;;5065504;28;20196;-79
2022/11/10 04:20:44;;;;;;;0.77;0.77;;;9.40;99.90;;;;;;5067566;28;20198;-80
2022/11/10 04:23:26;;;;;;;2.35;1.75;;;9.30;99.90;;;;;;5061065;28;20281;-79
2022/11/10 04:28:39;;;;;;;17.83;1.42;;;9.30;99.90;;;;;;5053527;28;20201;-79
2022/11/10 04:31:06;;;;;;;0.90;0.60;;;9.30;99.90;;;;;;5053358;28;20221;-80
2022/11/10 04:33:35;;;;;;;0.50;0.40;;;9.30;99.90;;;;;;5053211;28;20209;-79
2022/11/10 04:36:02;;;;;;;4.00;0.50;;;9.30;99.90;;;;;;5052491;28;20708;-79
2022/11/10 04:38:29;;;;;;;2.05;0.70;;;9.30;99.90;;;;;;5053724;28;20221;-79
2022/11/10 04:40:56;;;;;;;2.70;1.20;;;9.20;99.90;;;;;;5052897;28;20187;-78
2022/11/10 04:43:23;;;;;;;1.15;0.60;;;9.30;99.90;;;;;;5052803;28;20198;-79
2022/11/10 04:45:50;;;;;;;0.82;0.80;;;9.20;99.90;;;;;;5052729;28;20573;-79
2022/11/10 04:48:17;;;;;;;0.52;0.47;;;9.20;99.90;;;;;;5051573;28;20195;-78
2022/11/10 04:50:45;;;;;;;0.60;0.50;;;9.20;99.90;;;;;;5052104;28;20309;-79
2022/11/10 04:53:12;;;;;;;0.50;0.50;;;9.20;99.90;;;;;;5052006;28;20281;-78
2022/11/10 04:55:40;;;;;;;0.88;0.88;;;9.20;99.90;;;;;;5051696;28;20305;-78
2022/11/10 04:58:07;;;;;;;1.25;1.17;;;9.20;99.90;;;;;;5051628;28;20199;-79
2022/11/10 05:00:35;;;;;;;9.55;3.22;;;9.20;99.90;;;;;;5052174;28;20201;-77
2022/11/10 05:03:02;;;;;;;1.23;0.70;;;9.30;99.90;;;;;;5051743;28;20190;-76
2022/11/10 05:05:29;;;;;;;1.27;1.17;;;9.20;99.90;;;;;;5051673;28;20221;-79
2022/11/10 05:07:58;;;;;;;0.50;0.40;;;9.20;99.90;;;;;;5052141;28;20194;-80
2022/11/10 05:10:25;;;;;;;3.35;0.70;;;9.20;99.90;;;;;;5051891;28;20302;-79
2022/11/10 05:12:53;;;;;;;0.50;0.40;;;9.20;99.90;;;;;;5051522;28;20205;-74
2022/11/10 05:15:20;;;;;;;1.25;1.15;;;9.20;99.90;;;;;;5051486;28;20221;-80
2022/11/10 05:17:49;;;;;;;2.60;1.17;;;9.20;99.90;;;;;;5051923;28;20197;-78
2022/11/10 05:20:16;;;;;;;1.65;1.55;;;9.20;99.90;;;;;;5051632;28;20195;-78
2022/11/10 05:22:45;;;;;;;0.50;0.40;;;9.20;99.90;;;;;;5051692;28;20198;-78
2022/11/10 05:25:13;;;;;;;1.17;0.98;;;9.20;99.90;;;;;;5051492;28;20214;-78
2022/11/10 05:27:40;;;;;;;3.42;1.17;;;9.20;99.90;;;;;;5051652;28;20210;-78
2022/11/10 05:30:08;;;;;;;0.70;0.70;;;9.20;99.90;;;;;;5051760;28;20290;-78
2022/11/10 05:32:37;;;;;;;0.80;0.80;;;9.20;99.90;;;;;;5051292;28;20591;-78
2022/11/10 05:35:05;;;;;;;0.95;0.68;;;9.20;99.90;;;;;;5050686;28;20226;-79
2022/11/10 05:37:32;;;;;;;0.50;0.40;;;9.20;99.90;;;;;;5050986;28;20197;-78
2022/11/10 05:39:58;;;;;;;1.45;0.85;;;9.20;99.90;;;;;;5051345;28;20306;-78
2022/11/10 05:42:27;;;;;;;0.50;0.40;;;9.20;99.90;;;;;;5051628;28;20194;-76
2022/11/10 05:44:53;;;;;;;1.23;1.08;;;9.20;99.90;;;;;;5050919;28;20730;-78
2022/11/10 05:47:20;;;;;;;2.90;0.52;;;9.30;99.90;;;;;;5051628;28;20199;-79
2022/11/10 05:49:47;;;;;;;0.50;0.40;;;9.20;99.90;;;;;;5051277;28;20190;-76
2022/11/10 05:52:14;;;;;;;1.17;0.50;;;9.20;99.90;;;;;;5051834;28;20226;-78
2022/11/10 05:54:41;;;;;;;1.30;0.80;;;9.20;99.90;;;;;;5051441;28;20227;-75
2022/11/10 05:57:07;;;;;;;1.95;0.93;;;9.20;99.90;;;;;;5051551;28;20282;-79
2022/11/10 05:59:36;;;;;;;1.42;1.33;;;9.20;99.90;;;;;;5053424;28;20195;-79
2022/11/10 06:02:02;;;;;;;0.50;0.40;;;9.20;99.90;;;;;;5055206;28;20191;-79
2022/11/10 06:04:29;;;;;;;0.70;0.40;;;9.20;99.90;;;;;;5054788;28;20761;-79
2022/11/10 06:06:56;;;;;;;5.45;3.90;;;9.20;99.90;;;;;;5055744;28;20286;-79
2022/11/10 06:09:23;;;;;;;1.13;1.13;;;9.10;99.90;;;;;;5055818;28;20201;-79
2022/11/10 06:11:49;;;;;;;1.67;1.58;;;9.10;99.90;;;;;;5054798;28;20222;-79
2022/11/10 06:14:16;;;;;;;1.95;0.95;;;9.10;99.90;;;;;;5055384;28;20648;-79
2022/11/10 06:16:44;;;;;;;1.02;0.98;;;9.10;99.90;;;;;;5055207;28;20194;-74
2022/11/10 06:19:11;;;;;;;0.65;0.63;;;9.10;99.90;;;;;;5054981;28;20222;-78
2022/11/10 06:21:38;;;;;;;6.78;1.02;;;9.10;99.90;;;;;;5055027;28;20270;-79
2022/11/10 06:24:06;;;;;;;0.50;0.40;;;9.10;99.90;;;;;;5054880;28;20325;-79
2022/11/10 06:26:32;;;;;;;1.05;1.05;;;9.10;99.90;;;;;;5054768;28;20240;-79
2022/11/10 06:28:59;;;;;;;0.70;0.60;;;9.10;99.90;;;;;;5054815;28;20199;-79
2022/11/10 06:31:26;;;;;;;0.60;0.60;;;9.10;99.90;;;;;;5055242;28;20240;-79
2022/11/10 06:33:55;;;;;;;1.17;0.95;;;9.10;99.90;;;;;;5054381;28;20195;-77
2022/11/10 06:36:22;;;;;;;0.73;0.70;;;9.10;99.90;;;;;;5055113;28;20198;-78
2022/11/10 06:38:49;;;;;;;6.68;1.27;;;9.10;99.90;;;;;;5054475;28;20379;-78
2022/11/10 06:41:16;;;;;;;1.05;1.05;;;9.10;99.90;;;;;;5054349;28;20190;-78
2022/11/10 06:43:42;;;;;;;0.50;0.40;;;9.10;99.90;;;;;;5054266;28;20194;-78
2022/11/10 06:46:09;;;;;;;1.35;1.25;;;9.10;99.90;;;;;;5053651;28;20209;-77
2022/11/10 06:48:36;;;;;;;2.55;1.88;;;9.10;99.90;;;;;;5054260;28;20623;-78
2022/11/10 06:51:04;;;;;;;0.88;0.88;;;9.10;99.90;;;;;;5054096;28;20305;-77
2022/11/10 06:53:31;;;;;;;0.50;0.40;;;9.10;99.90;;;;;;5054185;28;20195;-77
2022/11/10 06:55:58;;;;;;;0.50;0.40;;;9.10;99.90;;;;;;5053476;28;20221;-78
2022/11/10 06:58:25;;;;;;;1.40;0.77;;;9.10;99.90;;;;;;5053622;28;20195;-78
2022/11/10 07:00:52;;;;;;;1.15;1.05;;;9.10;99.90;;;;;;5054154;28;20191;-76
2022/11/10 07:03:18;;;;;;;1.30;0.70;;;9.10;99.90;;;;;;5053580;28;20197;-78
2022/11/10 07:05:45;;;;;;;2.47;0.90;;;9.10;99.90;;;;;;5053198;28;20218;-78
2022/11/10 07:08:15;;;;;;;0.73;0.65;;;9.10;99.90;;;;;;5053574;28;20205;-78
2022/11/10 07:10:43;;;;;;;0.50;0.40;;;9.20;99.90;;;;;;5052293;28;20215;-78
2022/11/10 07:13:11;;;;;;;5.60;1.25;;;9.20;99.90;;;;;;5053290;28;20233;-78
2022/11/10 07:15:38;;;;;;;4.20;1.05;;;9.20;99.90;;;;;;5053191;28;20301;-78
2022/11/10 07:18:05;;;;;;;1.70;0.90;;;9.30;99.90;;;;;;5053121;28;20289;-78
2022/11/10 07:20:32;;;;;;;0.82;0.80;;;9.30;99.90;;;;;;5053021;28;20281;-77
2022/11/10 07:23:00;;;;;;;0.73;0.70;;;9.30;99.90;;;;;;5053208;28;20304;-77
2022/11/10 07:25:29;;;;;;;0.60;0.60;;;9.40;99.90;;;;;;5052911;28;20241;-77
2022/11/10 07:27:56;;;;;;;0.50;0.40;;;9.40;99.90;;;;;;5053342;28;20360;-77
2022/11/10 07:30:23;;;;;;;1.55;0.85;;;9.40;99.90;;;;;;5053180;28;20545;-80
2022/11/10 07:32:58;;;;;;;0.60;0.60;;;9.50;99.90;;;;;;5053075;28;20198;-78
2022/11/10 07:35:27;;;;;;;0.50;0.50;;;9.80;99.90;;;;;;5052340;28;20779;-78
2022/11/10 07:37:54;;;;;;;0.80;0.80;;;10.20;99.90;;;;;;5053302;28;20290;-75
2022/11/10 07:40:21;;;;;;;8.13;1.02;;;10.50;99.90;;;;;;5053154;28;20222;-79
2022/11/10 07:42:49;;;;;;;5.07;1.70;;;10.60;99.90;;;;;;5052823;28;20668;-78
2022/11/10 07:45:16;;;;;;;4.65;1.60;;;10.70;99.90;;;;;;5052776;28;20223;-77
2022/11/10 07:47:43;;;;;;;0.50;0.40;;;10.90;99.90;;;;;;5053333;28;20205;-78
2022/11/10 07:50:10;;;;;;;1.15;0.50;;;11.10;99.90;;;;;;5052532;28;20199;-79
2022/11/10 07:52:37;;;;;;;1.33;0.80;;;11.40;99.90;;;;;;5052875;28;20245;-79
2022/11/10 07:55:04;;;;;;;1.52;1.33;;;11.60;99.90;;;;;;5052537;28;20538;-76
2022/11/10 07:57:32;;;;;;;0.63;0.50;;;11.90;99.90;;;;;;5052481;28;20203;-79
2022/11/10 08:00:01;;;;;;;0.50;0.40;;;12.30;99.90;;;;;;5052901;28;20293;-78
2022/11/10 08:02:27;;;;;;;4.73;1.27;;;12.90;99.90;;;;;;5052618;28;20437;-77
2022/11/10 08:04:54;;;;;;;0.73;0.73;;;13.40;99.90;;;;;;5052373;28;20894;-79
2022/11/10 08:07:21;;;;;;;0.60;0.43;;;13.40;99.90;;;;;;5052598;28;20447;-78
2022/11/10 08:09:49;;;;;;;1.63;1.07;;;13.80;99.90;;;;;;5052830;28;20896;-76
2022/11/10 08:12:16;;;;;;;0.50;0.50;;;14.30;99.90;;;;;;5052424;28;20837;-78
2022/11/10 08:14:43;;;;;;;0.50;0.40;;;14.40;99.90;;;;;;5052082;28;20512;-76
2022/11/10 08:17:11;;;;;;;0.50;0.40;;;14.60;99.90;;;;;;5051890;28;20445;-78
2022/11/10 08:19:37;;;;;;;0.73;0.70;;;14.60;99.90;;;;;;5052150;28;20548;-78
2022/11/10 08:22:04;;;;;;;2.30;1.23;;;14.70;99.90;;;;;;5052434;28;20524;-78
2022/11/10 08:24:31;;;;;;;1.33;1.23;;;14.80;99.90;;;;;;5051624;28;20464;-76
2022/11/10 08:26:58;;;;;;;2.30;1.87;;;15.00;99.90;;;;;;5052377;28;20530;-78
2022/11/10 08:29:25;;;;;;;1.93;1.80;;;15.00;99.90;;;;;;5052097;28;20571;-78
2022/11/10 08:31:52;;;;;;;2.10;1.07;;;14.80;99.90;;;;;;5051605;28;20475;-74
2022/11/10 08:34:20;;;;;;;1.37;0.77;;;14.80;99.90;;;;;;5051243;28;21001;-78
2022/11/10 08:36:47;;;;;;;0.50;0.30;;;15.00;99.90;;;;;;5051668;28;20532;-78
2022/11/10 08:39:14;;;;;;;3.33;0.60;;;15.30;99.90;;;;;;5052052;28;20444;-78
2022/11/10 08:41:41;;;;;;;1.67;1.07;;;15.50;99.90;;;;;;5051782;28;20445;-79
2022/11/10 08:44:08;;;;;;;5.90;1.57;;;15.10;99.90;;;;;;5051418;28;20461;-78
2022/11/10 08:46:34;;;;;;;0.60;0.40;;;15.20;99.90;;;;;;5051777;28;20445;-77
2022/11/10 08:49:01;;;;;;;7.63;1.50;;;15.60;99.90;;;;;;5051978;28;20443;-78
2022/11/10 08:51:29;;;;;;;1.90;1.00;;;15.60;99.90;;;;;;5051913;28;20477;-78
2022/11/10 08:53:56;;;;;;;0.90;0.50;;;15.50;99.90;;;;;;5051831;28;20437;-77
2022/11/10 08:56:23;;;;;;;5.33;1.97;;;14.80;99.90;;;;;;5052677;28;20433;-79
2022/11/10 08:58:51;;;;;;;0.50;0.47;;;14.40;99.90;;;;;;5052241;28;20592;-78
2022/11/10 09:01:18;;;;;;;2.60;1.47;;;14.60;99.90;;;;;;5051969;28;20463;-79
2022/11/10 09:03:44;;;;;;;4.50;3.17;;;14.80;99.90;;;;;;5054521;28;21037;-79
2022/11/10 09:06:11;;;;;;;0.87;0.87;;;14.60;99.90;;;;;;5051487;28;20448;-80
2022/11/10 09:08:39;;;;;;;3.80;1.10;;;14.30;99.90;;;;;;5051873;28;20445;-79
2022/11/10 09:11:06;;;;;;;1.53;0.87;;;14.20;99.90;;;;;;5051552;28;20479;-79
2022/11/10 09:13:33;;;;;;;3.13;0.70;;;14.10;99.90;;;;;;5051929;28;20495;-79
2022/11/10 09:16:01;;;;;;;1.10;0.60;;;13.80;99.90;;;;;;5051155;28;20465;-79
2022/11/10 09:18:29;;;;;;;1.57;1.47;;;13.30;99.90;;;;;;5051416;28;20441;-80
2022/11/10 09:20:55;;;;;;;0.50;0.40;;;13.40;99.90;;;;;;5051729;28;20815;-79
2022/11/10 09:23:23;;;;;;;0.83;0.70;;;13.50;99.90;;;;;;5051880;28;20532;-77
2022/11/10 09:25:53;;;;;;;1.60;1.50;;;13.60;99.90;;;;;;5050824;28;20577;-79
2022/11/10 09:28:21;;;;;;;1.70;1.40;;;13.70;99.90;;;;;;5051292;28;20532;-80
2022/11/10 09:30:49;;;;;;;2.33;1.33;;;13.50;99.90;;;;;;5051159;28;20910;-79
2022/11/10 09:33:16;;;;;;;2.73;1.50;;;13.50;99.90;;;;;;5050941;28;20480;-79
2022/11/10 09:35:43;;;;;;;0.90;0.60;;;13.40;99.90;;;;;;5082106;22;20576;-78
2022/11/10 09:38:10;;;;;;;3.17;1.00;;;13.40;99.90;;;;;;5090878;28;20439;-77
2022/11/10 09:40:55;;;;;;;7.80;0.93;;;13.50;99.90;;;;;;5091064;28;20478;-77
2022/11/10 09:43:29;;;;;;;0.50;0.40;;;13.50;99.90;;;;;;5091137;28;20527;-78
2022/11/10 09:45:59;;;;;;;0.50;0.40;;;13.60;99.90;;;;;;5090668;28;20455;-78
2022/11/10 09:48:29;;;;;;;2.10;0.70;;;13.60;99.90;;;;;;5090138;28;20436;-78
2022/11/10 09:51:01;;;;;;;4.53;2.07;;;13.40;99.90;;;;;;5091020;28;20439;-78
2022/11/10 09:53:34;;;;;;;0.50;0.40;;;13.60;99.90;;;;;;5091148;28;20909;-78
2022/11/10 09:56:04;;;;;;;0.50;0.50;;;13.70;99.90;;;;;;5090505;28;20465;-79
2022/11/10 09:58:38;;;;;;;0.50;0.40;;;13.90;99.90;;;;;;5090093;28;20437;-78
2022/11/10 10:01:17;;;;;;;0.50;0.40;;;13.90;99.90;;;;;;5091139;28;20835;-78
2022/11/10 10:03:49;;;;;;;2.00;1.37;;;13.80;99.90;;;;;;5091154;28;20522;-78
2022/11/10 10:06:17;;;;;;;1.03;0.80;;;13.70;99.90;;;;;;5090548;28;20550;-78
2022/11/10 10:08:59;;;;;;;1.73;0.77;;;13.50;99.90;;;;;;5090052;28;20630;-77
2022/11/10 10:11:36;;;;;;;0.50;0.40;;;13.50;99.90;;;;;;5090582;28;20471;-76
2022/11/10 10:14:17;;;;;;;0.60;0.50;;;13.60;99.90;;;;;;5090510;28;20431;-78
2022/11/10 10:16:51;;;;;;;1.00;0.50;;;13.80;99.90;;;;;;5090975;28;20477;-77
2022/11/10 10:19:27;;;;;;;0.70;0.70;;;13.70;99.90;;;;;;5090710;28;21001;-77
2022/11/10 10:22:26;;;;;;;0.83;0.63;;;13.80;99.90;;;;;;5090536;28;20466;-78
2022/11/10 10:24:57;;;;;;;8.20;1.27;;;14.00;99.90;;;;;;5090204;28;20522;-78
2022/11/10 10:27:26;;;;;;;1.57;0.60;;;14.00;99.90;;;;;;5090200;28;20535;-78
2022/11/10 10:29:55;;;;;;;1.63;1.53;;;14.00;99.90;;;;;;5090920;28;20482;-78
2022/11/10 10:32:22;;;;;;;1.60;1.50;;;14.00;99.90;;;;;;5090145;28;20566;-78
2022/11/10 10:34:48;;;;;;;0.70;0.70;;;14.20;99.90;;;;;;5089736;28;20847;-78
2022/11/10 10:37:24;;;;;;;1.63;0.50;;;14.50;99.90;;;;;;5090669;28;20419;-77
2022/11/10 10:39:54;;;;;;;1.70;1.40;;;14.70;99.90;;;;;;5090561;28;20805;-77
2022/11/10 10:42:30;;;;;;;1.60;1.27;;;14.90;99.90;;;;;;5090336;28;20801;-78
2022/11/10 10:45:18;;;;;;;0.50;0.40;;;15.10;99.90;;;;;;5090408;28;20451;-77
2022/11/10 10:47:46;;;;;;;0.50;0.30;;;15.10;99.90;;;;;;5093460;28;20443;-78
2022/11/10 10:50:24;;;;;;;7.60;1.07;;;15.20;99.90;;;;;;5093900;28;20446;-78
2022/11/10 10:53:17;;;;;;;0.60;0.60;;;15.40;99.90;;;;;;5093792;28;20467;-78
2022/11/10 10:55:52;;;;;;;1.87;1.10;;;15.40;99.90;;;;;;5093175;28;20538;-78
2022/11/10 10:58:23;;;;;;;0.50;0.40;;;15.30;99.90;;;;;;5093382;28;20508;-78
2022/11/10 11:00:53;;;;;;;0.80;0.70;;;15.20;99.90;;;;;;5093915;28;20510;-77
2022/11/10 11:03:26;;;;;;;0.60;0.40;;;15.00;99.90;;;;;;5093678;28;20424;-77
2022/11/10 11:06:05;;;;;;;12.67;2.00;;;15.00;99.90;;;;;;5093098;28;20550;-78
2022/11/10 11:08:33;;;;;;;2.30;0.60;;;15.10;99.90;;;;;;5093573;28;20477;-78
2022/11/10 11:11:08;;;;;;;5.70;1.53;;;15.10;99.90;;;;;;5093135;28;20448;-78
2022/11/10 11:13:35;;;;;;;0.60;0.50;;;14.90;99.90;;;;;;5093273;28;20491;-79
2022/11/10 11:16:06;;;;;;;1.80;0.40;;;14.90;99.90;;;;;;5093073;28;20501;-78
2022/11/10 11:18:34;;;;;;;1.90;1.80;;;14.90;99.90;;;;;;5093758;28;20424;-78
2022/11/10 11:21:08;;;;;;;0.80;0.60;;;14.90;99.90;;;;;;5093330;28;20912;-78
2022/11/10 11:23:48;;;;;;;1.67;0.93;;;14.80;99.90;;;;;;5093139;28;20924;-78
2022/11/10 11:26:19;;;;;;;1.00;0.90;;;14.70;99.90;;;;;;5093269;28;20462;-78
2022/11/10 11:28:58;;;;;;;0.80;0.50;;;14.70;99.90;;;;;;5093032;28;20497;-78
2022/11/10 11:31:39;;;;;;;1.73;1.13;;;14.70;99.90;;;;;;5093130;28;20510;-78
2022/11/10 11:34:17;;;;;;;0.60;0.40;;;14.70;99.90;;;;;;5092715;28;20453;-80
2022/11/10 11:36:52;;;;;;;2.60;0.97;;;14.90;99.90;;;;;;5092593;28;20565;-78
2022/11/10 11:39:40;;;;;;;0.50;0.40;;;15.10;99.90;;;;;;5093380;28;20445;-78
2022/11/10 11:42:18;;;;;;;0.50;0.40;;;15.40;99.90;;;;;;5092700;28;21015;-78
2022/11/10 11:44:54;;;;;;;1.90;0.63;;;15.50;99.90;;;;;;5092456;28;20504;-78
2022/11/10 11:47:37;;;;;;;0.50;0.40;;;15.50;99.90;;;;;;5093029;28;20939;-78
2022/11/10 11:50:19;;;;;;;0.50;0.40;;;15.50;99.90;;;;;;5092553;28;20879;-78
2022/11/10 11:52:57;;;;;;;1.37;0.70;;;15.40;99.90;;;;;;5093038;28;20550;-74
2022/11/10 11:55:33;;;;;;;0.50;0.40;;;15.40;99.90;;;;;;5092207;28;20992;-78
2022/11/10 11:58:23;;;;;;;2.20;0.70;;;15.20;99.90;;;;;;5092282;28;20513;-78
2022/11/10 12:00:57;;;;;;;8.03;1.57;;;15.20;99.90;;;;;;5092849;28;20436;-78
2022/11/10 12:03:48;;;;;;;0.50;0.40;;;15.30;99.90;;;;;;5093912;28;20510;-78
2022/11/10 12:06:41;;;;;;;10.00;3.73;;;15.30;99.90;;;;;;5093273;28;20534;-78
2022/11/10 12:09:17;;;;;;;3.47;0.90;;;15.10;99.90;;;;;;5093219;28;20423;-78
2022/11/10 12:11:59;;;;;;;2.00;1.90;;;15.00;99.90;;;;;;5092425;28;20976;-74
2022/11/10 12:14:37;;;;;;;2.20;0.60;;;14.90;99.90;;;;;;5091997;28;20823;-78
2022/11/10 12:17:12;;;;;;;8.80;2.40;;;14.80;99.90;;;;;;5092430;28;20435;-76
2022/11/10 12:19:50;;;;;;;0.70;0.60;;;14.90;99.90;;;;;;5092461;28;20533;-78
2022/11/10 12:22:27;;;;;;;0.50;0.30;;;14.90;99.90;;;;;;5092412;28;20442;-78
2022/11/10 12:25:13;;;;;;;2.10;0.93;;;14.80;99.90;;;;;;5092674;28;20458;-78
2022/11/10 12:27:45;;;;;;;3.30;1.10;;;14.80;99.90;;;;;;5092096;28;20432;-78
2022/11/10 12:30:13;;;;;;;4.10;0.80;;;14.80;99.90;;;;;;5092909;28;20555;-78
2022/11/10 12:32:46;;;;;;;13.90;1.10;;;14.80;99.90;;;;;;5091658;28;20473;-78
2022/11/10 12:35:20;;;;;;;6.17;0.73;;;14.80;99.90;;;;;;5091264;28;20471;-77
2022/11/10 12:37:51;;;;;;;0.60;0.50;;;14.90;99.90;;;;;;5091577;28;20522;-78
2022/11/10 12:40:21;;;;;;;1.60;1.27;;;15.10;99.90;;;;;;5092162;28;20538;-78
2022/11/10 12:42:55;;;;;;;11.30;1.07;;;15.00;99.90;;;;;;5091953;28;20428;-76
2022/11/10 12:45:26;;;;;;;4.83;1.07;;;15.00;99.90;;;;;;5091300;28;20565;-77
2022/11/10 12:47:54;;;;;;;10.90;1.43;;;15.00;99.90;;;;;;5091598;28;20440;-79
2022/11/10 12:50:34;;;;;;;1.00;0.80;;;15.10;99.90;;;;;;5092090;28;20443;-78
2022/11/10 12:53:08;;;;;;;0.60;0.50;;;15.20;99.90;;;;;;5091783;28;20475;-79
2022/11/10 12:55:38;;;;;;;0.77;0.50;;;15.30;99.90;;;;;;5091480;28;20491;-78
2022/11/10 12:58:06;;;;;;;4.00;1.50;;;15.50;99.90;;;;;;5091524;28;20439;-77
2022/11/10 13:00:38;;;;;;;1.30;0.70;;;15.80;99.90;;;;;;5091649;28;20445;-78
2022/11/10 13:03:12;;;;;;;6.20;0.90;;;15.80;99.90;;;;;;5091784;28;20434;-75
2022/11/10 13:05:44;;;;;;;1.67;0.40;;;15.80;99.90;;;;;;5091270;28;20463;-77
2022/11/10 13:08:20;;;;;;;1.00;0.50;;;15.60;99.90;;;;;;5091388;28;20518;-79
2022/11/10 13:10:52;;;;;;;0.60;0.40;;;15.70;99.90;;;;;;5091810;28;20426;-79
2022/11/10 13:13:18;;;;;;;1.80;0.80;;;15.70;99.90;;;;;;5091217;28;20459;-78
2022/11/10 13:15:51;;;;;;;3.13;1.27;;;15.70;99.90;;;;;;5091600;28;21142;-78
2022/11/10 13:18:58;;;;;;;0.50;0.40;;;15.70;99.90;;;;;;5091680;28;20432;-78
2022/11/10 13:22:09;;;;;;;0.50;0.40;;;16.00;99.90;;;;;;5091521;28;20502;-77